sensor_id;sensor_type;location;lat;lon;timestamp;P1;durP1;ratioP1;P2;durP2;ratioP2
14613;SDS011;7393;51.446;6.800;2023-05-29T00:01:31;3.40;;;2.47;;
14613;SDS011;7393;51.446;6.800;2023-05-29T00:03:58;4.80;;;2.50;;
14613;SDS011;7393;51.446;6.800;2023-05-29T00:06:25;5.17;;;2.30;;
14613;SDS011;7393;51.446;6.800;2023-05-29T00:08:52;4.50;;;2.30;;
14613;SDS011;7393;51.446;6.800;2023-05-29T00:11:18;4.07;;;2.60;;
14613;SDS011;7393;51.446;6.800;2023-05-29T00:13:46;4.27;;;2.50;;
14613;SDS011;7393;51.446;6.800;2023-05-29T00:16:13;5.90;;;3.07;;
14613;SDS011;7393;51.446;6.800;2023-05-29T00:18:41;4.53;;;2.67;;
14613;SDS011;7393;51.446;6.800;2023-05-29T00:21:10;3.57;;;2.70;;
14613;SDS011;7393;51.446;6.800;2023-05-29T00:23:37;5.70;;;2.63;;
14613;SDS011;7393;51.446;6.800;2023-05-29T00:26:04;4.80;;;2.80;;
14613;SDS011;7393;51.446;6.800;2023-05-29T00:28:31;3.17;;;2.60;;
14613;SDS011;7393;51.446;6.800;2023-05-29T00:30:58;3.80;;;2.47;;
14613;SDS011;7393;51.446;6.800;2023-05-29T00:33:25;4.80;;;2.40;;
14613;SDS011;7393;51.446;6.800;2023-05-29T00:35:53;4.23;;;2.40;;
14613;SDS011;7393;51.446;6.800;2023-05-29T00:38:20;6.67;;;2.77;;
14613;SDS011;7393;51.446;6.800;2023-05-29T00:40:47;5.60;;;2.87;;
14613;SDS011;7393;51.446;6.800;2023-05-29T00:43:14;4.90;;;2.30;;
14613;SDS011;7393;51.446;6.800;2023-05-29T00:45:41;5.00;;;2.50;;
14613;SDS011;7393;51.446;6.800;2023-05-29T00:48:08;5.10;;;2.50;;
14613;SDS011;7393;51.446;6.800;2023-05-29T00:50:34;5.37;;;3.20;;
14613;SDS011;7393;51.446;6.800;2023-05-29T00:53:03;3.77;;;2.70;;
14613;SDS011;7393;51.446;6.800;2023-05-29T00:55:31;4.63;;;2.63;;
14613;SDS011;7393;51.446;6.800;2023-05-29T00:57:58;5.00;;;2.70;;
14613;SDS011;7393;51.446;6.800;2023-05-29T01:00:25;3.50;;;2.50;;
14613;SDS011;7393;51.446;6.800;2023-05-29T01:02:52;4.80;;;3.20;;
14613;SDS011;7393;51.446;6.800;2023-05-29T01:05:19;5.23;;;2.80;;
14613;SDS011;7393;51.446;6.800;2023-05-29T01:07:46;4.73;;;2.70;;
14613;SDS011;7393;51.446;6.800;2023-05-29T01:10:15;4.80;;;3.27;;
14613;SDS011;7393;51.446;6.800;2023-05-29T01:12:44;6.57;;;2.97;;
14613;SDS011;7393;51.446;6.800;2023-05-29T01:15:24;6.63;;;3.03;;
14613;SDS011;7393;51.446;6.800;2023-05-29T01:18:04;6.77;;;2.93;;
14613;SDS011;7393;51.446;6.800;2023-05-29T01:20:40;5.10;;;2.67;;
14613;SDS011;7393;51.446;6.800;2023-05-29T01:23:23;4.90;;;3.10;;
14613;SDS011;7393;51.446;6.800;2023-05-29T01:26:20;6.00;;;2.90;;
14613;SDS011;7393;51.446;6.800;2023-05-29T01:28:53;5.00;;;2.80;;
14613;SDS011;7393;51.446;6.800;2023-05-29T01:31:23;7.47;;;2.70;;
14613;SDS011;7393;51.446;6.800;2023-05-29T01:33:52;7.90;;;3.13;;
14613;SDS011;7393;51.446;6.800;2023-05-29T01:36:20;5.00;;;2.33;;
14613;SDS011;7393;51.446;6.800;2023-05-29T01:38:47;9.30;;;2.83;;
14613;SDS011;7393;51.446;6.800;2023-05-29T01:41:15;6.87;;;2.83;;
14613;SDS011;7393;51.446;6.800;2023-05-29T01:43:43;4.63;;;2.30;;
14613;SDS011;7393;51.446;6.800;2023-05-29T01:46:12;8.70;;;2.67;;
14613;SDS011;7393;51.446;6.800;2023-05-29T01:48:40;7.20;;;2.57;;
14613;SDS011;7393;51.446;6.800;2023-05-29T01:51:07;8.50;;;3.00;;
14613;SDS011;7393;51.446;6.800;2023-05-29T01:53:35;8.40;;;2.50;;
14613;SDS011;7393;51.446;6.800;2023-05-29T01:56:02;9.53;;;2.53;;
14613;SDS011;7393;51.446;6.800;2023-05-29T01:58:31;6.07;;;2.63;;
14613;SDS011;7393;51.446;6.800;2023-05-29T02:00:59;11.20;;;2.50;;
14613;SDS011;7393;51.446;6.800;2023-05-29T02:03:30;6.77;;;2.30;;
14613;SDS011;7393;51.446;6.800;2023-05-29T02:05:57;7.67;;;2.80;;
14613;SDS011;7393;51.446;6.800;2023-05-29T02:08:24;9.47;;;2.80;;
14613;SDS011;7393;51.446;6.800;2023-05-29T02:10:51;8.47;;;2.40;;
14613;SDS011;7393;51.446;6.800;2023-05-29T02:13:18;9.30;;;2.67;;
14613;SDS011;7393;51.446;6.800;2023-05-29T02:15:45;9.67;;;2.77;;
14613;SDS011;7393;51.446;6.800;2023-05-29T02:18:13;9.23;;;3.00;;
14613;SDS011;7393;51.446;6.800;2023-05-29T02:20:43;9.43;;;2.13;;
14613;SDS011;7393;51.446;6.800;2023-05-29T02:23:10;7.03;;;2.23;;
14613;SDS011;7393;51.446;6.800;2023-05-29T02:25:38;8.67;;;2.87;;
14613;SDS011;7393;51.446;6.800;2023-05-29T02:28:05;7.60;;;2.50;;
14613;SDS011;7393;51.446;6.800;2023-05-29T02:30:32;10.17;;;2.63;;
14613;SDS011;7393;51.446;6.800;2023-05-29T02:32:59;7.03;;;2.63;;
14613;SDS011;7393;51.446;6.800;2023-05-29T02:35:25;8.77;;;2.70;;
14613;SDS011;7393;51.446;6.800;2023-05-29T02:37:54;5.53;;;2.20;;
14613;SDS011;7393;51.446;6.800;2023-05-29T02:40:20;8.53;;;3.17;;
14613;SDS011;7393;51.446;6.800;2023-05-29T02:42:48;8.20;;;2.53;;
14613;SDS011;7393;51.446;6.800;2023-05-29T02:45:15;8.63;;;2.37;;
14613;SDS011;7393;51.446;6.800;2023-05-29T02:47:42;8.80;;;2.37;;
14613;SDS011;7393;51.446;6.800;2023-05-29T02:50:10;11.67;;;2.70;;
14613;SDS011;7393;51.446;6.800;2023-05-29T02:52:39;10.87;;;2.30;;
14613;SDS011;7393;51.446;6.800;2023-05-29T02:55:08;11.80;;;2.97;;
14613;SDS011;7393;51.446;6.800;2023-05-29T02:57:35;10.30;;;3.07;;
14613;SDS011;7393;51.446;6.800;2023-05-29T03:00:02;9.73;;;2.30;;
14613;SDS011;7393;51.446;6.800;2023-05-29T03:02:32;7.37;;;2.23;;
14613;SDS011;7393;51.446;6.800;2023-05-29T03:04:59;6.40;;;2.43;;
14613;SDS011;7393;51.446;6.800;2023-05-29T03:07:27;8.60;;;2.53;;
14613;SDS011;7393;51.446;6.800;2023-05-29T03:09:53;10.23;;;2.80;;
14613;SDS011;7393;51.446;6.800;2023-05-29T03:12:23;7.23;;;2.27;;
14613;SDS011;7393;51.446;6.800;2023-05-29T03:14:50;9.73;;;2.37;;
14613;SDS011;7393;51.446;6.800;2023-05-29T03:17:17;11.27;;;2.60;;
14613;SDS011;7393;51.446;6.800;2023-05-29T03:19:43;8.73;;;2.13;;
14613;SDS011;7393;51.446;6.800;2023-05-29T03:22:10;9.63;;;2.57;;
14613;SDS011;7393;51.446;6.800;2023-05-29T03:24:37;11.13;;;2.50;;
14613;SDS011;7393;51.446;6.800;2023-05-29T03:27:04;8.10;;;2.30;;
14613;SDS011;7393;51.446;6.800;2023-05-29T03:29:32;8.67;;;2.70;;
14613;SDS011;7393;51.446;6.800;2023-05-29T03:31:59;9.77;;;2.57;;
14613;SDS011;7393;51.446;6.800;2023-05-29T03:34:26;12.77;;;2.53;;
14613;SDS011;7393;51.446;6.800;2023-05-29T03:36:52;12.07;;;2.90;;
14613;SDS011;7393;51.446;6.800;2023-05-29T03:39:19;11.20;;;2.63;;
14613;SDS011;7393;51.446;6.800;2023-05-29T03:41:46;9.97;;;2.83;;
14613;SDS011;7393;51.446;6.800;2023-05-29T03:44:13;10.03;;;2.60;;
14613;SDS011;7393;51.446;6.800;2023-05-29T03:46:41;11.73;;;3.33;;
14613;SDS011;7393;51.446;6.800;2023-05-29T03:49:08;10.83;;;2.73;;
14613;SDS011;7393;51.446;6.800;2023-05-29T03:51:34;12.57;;;3.10;;
14613;SDS011;7393;51.446;6.800;2023-05-29T03:54:01;11.57;;;2.90;;
14613;SDS011;7393;51.446;6.800;2023-05-29T03:56:28;14.87;;;3.10;;
14613;SDS011;7393;51.446;6.800;2023-05-29T03:58:56;15.97;;;3.60;;
14613;SDS011;7393;51.446;6.800;2023-05-29T04:01:23;17.53;;;3.60;;
14613;SDS011;7393;51.446;6.800;2023-05-29T04:03:51;12.60;;;3.00;;
14613;SDS011;7393;51.446;6.800;2023-05-29T04:06:18;12.10;;;2.70;;
14613;SDS011;7393;51.446;6.800;2023-05-29T04:08:45;13.67;;;3.23;;
14613;SDS011;7393;51.446;6.800;2023-05-29T04:11:12;14.70;;;2.93;;
14613;SDS011;7393;51.446;6.800;2023-05-29T04:13:39;10.43;;;2.53;;
14613;SDS011;7393;51.446;6.800;2023-05-29T04:16:06;12.07;;;3.13;;
14613;SDS011;7393;51.446;6.800;2023-05-29T04:18:33;13.00;;;3.13;;
14613;SDS011;7393;51.446;6.800;2023-05-29T04:21:01;9.47;;;2.97;;
14613;SDS011;7393;51.446;6.800;2023-05-29T04:23:28;8.77;;;2.40;;
14613;SDS011;7393;51.446;6.800;2023-05-29T04:25:55;15.47;;;3.37;;
14613;SDS011;7393;51.446;6.800;2023-05-29T04:28:22;12.67;;;3.03;;
14613;SDS011;7393;51.446;6.800;2023-05-29T04:30:49;14.03;;;3.20;;
14613;SDS011;7393;51.446;6.800;2023-05-29T04:33:17;10.40;;;3.20;;
14613;SDS011;7393;51.446;6.800;2023-05-29T04:35:45;12.73;;;3.07;;
14613;SDS011;7393;51.446;6.800;2023-05-29T04:38:15;9.10;;;2.80;;
14613;SDS011;7393;51.446;6.800;2023-05-29T04:40:42;11.00;;;2.47;;
14613;SDS011;7393;51.446;6.800;2023-05-29T04:43:09;14.37;;;3.03;;
14613;SDS011;7393;51.446;6.800;2023-05-29T04:45:36;10.20;;;2.77;;
14613;SDS011;7393;51.446;6.800;2023-05-29T04:48:03;8.67;;;2.60;;
14613;SDS011;7393;51.446;6.800;2023-05-29T04:50:30;9.97;;;2.57;;
14613;SDS011;7393;51.446;6.800;2023-05-29T04:52:57;12.77;;;3.13;;
14613;SDS011;7393;51.446;6.800;2023-05-29T04:55:25;9.37;;;2.43;;
14613;SDS011;7393;51.446;6.800;2023-05-29T04:57:52;11.73;;;2.80;;
14613;SDS011;7393;51.446;6.800;2023-05-29T05:00:19;14.07;;;3.17;;
14613;SDS011;7393;51.446;6.800;2023-05-29T05:02:47;9.13;;;2.80;;
14613;SDS011;7393;51.446;6.800;2023-05-29T05:05:15;10.27;;;2.90;;
14613;SDS011;7393;51.446;6.800;2023-05-29T05:07:42;12.83;;;2.60;;
14613;SDS011;7393;51.446;6.800;2023-05-29T05:10:09;13.13;;;3.13;;
14613;SDS011;7393;51.446;6.800;2023-05-29T05:12:38;14.13;;;3.10;;
14613;SDS011;7393;51.446;6.800;2023-05-29T05:15:05;12.57;;;3.30;;
14613;SDS011;7393;51.446;6.800;2023-05-29T05:17:33;12.43;;;3.03;;
14613;SDS011;7393;51.446;6.800;2023-05-29T05:20:00;10.57;;;3.07;;
14613;SDS011;7393;51.446;6.800;2023-05-29T05:22:28;14.00;;;2.97;;
14613;SDS011;7393;51.446;6.800;2023-05-29T05:24:55;10.47;;;3.23;;
14613;SDS011;7393;51.446;6.800;2023-05-29T05:27:22;13.20;;;2.90;;
14613;SDS011;7393;51.446;6.800;2023-05-29T05:29:51;10.37;;;2.60;;
14613;SDS011;7393;51.446;6.800;2023-05-29T05:32:17;13.43;;;2.87;;
14613;SDS011;7393;51.446;6.800;2023-05-29T05:34:44;11.23;;;3.03;;
14613;SDS011;7393;51.446;6.800;2023-05-29T05:37:11;12.27;;;2.60;;
14613;SDS011;7393;51.446;6.800;2023-05-29T05:39:38;7.73;;;2.57;;
14613;SDS011;7393;51.446;6.800;2023-05-29T05:42:05;10.40;;;2.43;;
14613;SDS011;7393;51.446;6.800;2023-05-29T05:44:32;10.43;;;3.20;;
14613;SDS011;7393;51.446;6.800;2023-05-29T05:47:00;10.47;;;2.60;;
14613;SDS011;7393;51.446;6.800;2023-05-29T05:49:27;10.27;;;2.27;;
14613;SDS011;7393;51.446;6.800;2023-05-29T05:51:54;13.23;;;2.67;;
14613;SDS011;7393;51.446;6.800;2023-05-29T05:54:20;12.70;;;2.07;;
14613;SDS011;7393;51.446;6.800;2023-05-29T05:56:47;10.83;;;2.70;;
14613;SDS011;7393;51.446;6.800;2023-05-29T05:59:14;9.20;;;2.27;;
14613;SDS011;7393;51.446;6.800;2023-05-29T06:01:41;9.47;;;2.40;;
14613;SDS011;7393;51.446;6.800;2023-05-29T06:04:09;11.63;;;2.27;;
14613;SDS011;7393;51.446;6.800;2023-05-29T06:06:36;13.20;;;2.43;;
14613;SDS011;7393;51.446;6.800;2023-05-29T06:09:03;6.00;;;2.10;;
14613;SDS011;7393;51.446;6.800;2023-05-29T06:11:30;13.43;;;2.50;;
14613;SDS011;7393;51.446;6.800;2023-05-29T06:13:57;7.23;;;2.57;;
14613;SDS011;7393;51.446;6.800;2023-05-29T06:16:24;9.20;;;2.20;;
14613;SDS011;7393;51.446;6.800;2023-05-29T06:18:51;13.07;;;2.80;;
14613;SDS011;7393;51.446;6.800;2023-05-29T06:21:20;10.33;;;2.57;;
14613;SDS011;7393;51.446;6.800;2023-05-29T06:23:46;9.27;;;2.07;;
14613;SDS011;7393;51.446;6.800;2023-05-29T06:26:13;10.03;;;2.33;;
14613;SDS011;7393;51.446;6.800;2023-05-29T06:28:41;7.77;;;2.43;;
14613;SDS011;7393;51.446;6.800;2023-05-29T06:31:08;9.97;;;2.50;;
14613;SDS011;7393;51.446;6.800;2023-05-29T06:33:35;8.07;;;2.27;;
14613;SDS011;7393;51.446;6.800;2023-05-29T06:36:03;9.43;;;2.30;;
14613;SDS011;7393;51.446;6.800;2023-05-29T06:38:31;11.07;;;2.60;;
14613;SDS011;7393;51.446;6.800;2023-05-29T06:40:58;11.40;;;2.30;;
14613;SDS011;7393;51.446;6.800;2023-05-29T06:43:26;10.03;;;2.37;;
14613;SDS011;7393;51.446;6.800;2023-05-29T06:45:53;10.13;;;2.20;;
14613;SDS011;7393;51.446;6.800;2023-05-29T06:48:20;8.80;;;2.50;;
14613;SDS011;7393;51.446;6.800;2023-05-29T06:50:47;8.03;;;2.20;;
14613;SDS011;7393;51.446;6.800;2023-05-29T06:53:14;11.70;;;2.63;;
14613;SDS011;7393;51.446;6.800;2023-05-29T06:55:42;8.00;;;2.43;;
14613;SDS011;7393;51.446;6.800;2023-05-29T06:58:09;10.63;;;2.50;;
14613;SDS011;7393;51.446;6.800;2023-05-29T07:00:36;7.50;;;2.50;;
14613;SDS011;7393;51.446;6.800;2023-05-29T07:03:03;10.47;;;2.63;;
14613;SDS011;7393;51.446;6.800;2023-05-29T07:05:29;7.80;;;2.37;;
14613;SDS011;7393;51.446;6.800;2023-05-29T07:07:56;9.43;;;2.57;;
14613;SDS011;7393;51.446;6.800;2023-05-29T07:10:23;8.63;;;2.30;;
14613;SDS011;7393;51.446;6.800;2023-05-29T07:12:51;10.33;;;2.30;;
14613;SDS011;7393;51.446;6.800;2023-05-29T07:15:18;11.03;;;2.70;;
14613;SDS011;7393;51.446;6.800;2023-05-29T07:17:45;7.97;;;2.10;;
14613;SDS011;7393;51.446;6.800;2023-05-29T07:20:11;6.80;;;2.30;;
14613;SDS011;7393;51.446;6.800;2023-05-29T07:22:40;9.93;;;2.50;;
14613;SDS011;7393;51.446;6.800;2023-05-29T07:25:07;9.37;;;2.43;;
14613;SDS011;7393;51.446;6.800;2023-05-29T07:27:34;9.17;;;2.63;;
14613;SDS011;7393;51.446;6.800;2023-05-29T07:30:03;10.27;;;2.83;;
14613;SDS011;7393;51.446;6.800;2023-05-29T07:32:30;8.53;;;2.60;;
14613;SDS011;7393;51.446;6.800;2023-05-29T07:34:57;11.33;;;2.10;;
14613;SDS011;7393;51.446;6.800;2023-05-29T07:37:24;7.30;;;2.43;;
14613;SDS011;7393;51.446;6.800;2023-05-29T07:39:51;7.03;;;2.60;;
14613;SDS011;7393;51.446;6.800;2023-05-29T07:42:17;9.17;;;2.70;;
14613;SDS011;7393;51.446;6.800;2023-05-29T07:44:44;10.80;;;3.20;;
14613;SDS011;7393;51.446;6.800;2023-05-29T07:47:14;12.57;;;3.00;;
14613;SDS011;7393;51.446;6.800;2023-05-29T07:49:41;10.53;;;2.83;;
14613;SDS011;7393;51.446;6.800;2023-05-29T07:52:07;8.53;;;2.23;;
14613;SDS011;7393;51.446;6.800;2023-05-29T07:54:34;12.97;;;3.03;;
14613;SDS011;7393;51.446;6.800;2023-05-29T07:57:01;8.73;;;2.40;;
14613;SDS011;7393;51.446;6.800;2023-05-29T07:59:29;7.43;;;2.30;;
14613;SDS011;7393;51.446;6.800;2023-05-29T08:01:55;12.10;;;3.13;;
14613;SDS011;7393;51.446;6.800;2023-05-29T08:04:25;11.37;;;2.80;;
14613;SDS011;7393;51.446;6.800;2023-05-29T08:06:51;8.20;;;2.50;;
14613;SDS011;7393;51.446;6.800;2023-05-29T08:09:18;8.43;;;2.93;;
14613;SDS011;7393;51.446;6.800;2023-05-29T08:11:45;10.93;;;2.47;;
14613;SDS011;7393;51.446;6.800;2023-05-29T08:14:13;7.73;;;2.60;;
14613;SDS011;7393;51.446;6.800;2023-05-29T08:16:40;11.00;;;3.00;;
14613;SDS011;7393;51.446;6.800;2023-05-29T08:19:07;8.80;;;2.60;;
14613;SDS011;7393;51.446;6.800;2023-05-29T08:21:35;9.87;;;2.97;;
14613;SDS011;7393;51.446;6.800;2023-05-29T08:24:03;9.47;;;3.07;;
14613;SDS011;7393;51.446;6.800;2023-05-29T08:26:31;12.07;;;2.57;;
14613;SDS011;7393;51.446;6.800;2023-05-29T08:28:59;7.13;;;2.10;;
14613;SDS011;7393;51.446;6.800;2023-05-29T08:31:25;9.60;;;2.90;;
14613;SDS011;7393;51.446;6.800;2023-05-29T08:33:53;10.63;;;2.73;;
14613;SDS011;7393;51.446;6.800;2023-05-29T08:36:21;9.73;;;2.70;;
14613;SDS011;7393;51.446;6.800;2023-05-29T08:38:49;9.73;;;2.90;;
14613;SDS011;7393;51.446;6.800;2023-05-29T08:41:17;6.00;;;2.40;;
14613;SDS011;7393;51.446;6.800;2023-05-29T08:43:50;9.53;;;2.70;;
14613;SDS011;7393;51.446;6.800;2023-05-29T08:46:18;8.90;;;3.00;;
14613;SDS011;7393;51.446;6.800;2023-05-29T08:48:47;9.07;;;2.17;;
14613;SDS011;7393;51.446;6.800;2023-05-29T08:51:15;7.63;;;2.67;;
14613;SDS011;7393;51.446;6.800;2023-05-29T08:53:45;7.03;;;2.60;;
14613;SDS011;7393;51.446;6.800;2023-05-29T08:56:14;12.73;;;3.30;;
14613;SDS011;7393;51.446;6.800;2023-05-29T08:58:41;10.13;;;3.00;;
14613;SDS011;7393;51.446;6.800;2023-05-29T09:01:08;11.70;;;3.13;;
14613;SDS011;7393;51.446;6.800;2023-05-29T09:03:36;9.43;;;2.77;;
14613;SDS011;7393;51.446;6.800;2023-05-29T09:06:03;12.37;;;4.13;;
14613;SDS011;7393;51.446;6.800;2023-05-29T09:08:32;14.00;;;2.93;;
14613;SDS011;7393;51.446;6.800;2023-05-29T09:10:59;8.70;;;2.50;;
14613;SDS011;7393;51.446;6.800;2023-05-29T09:13:27;8.33;;;2.70;;
14613;SDS011;7393;51.446;6.800;2023-05-29T09:15:56;8.43;;;3.00;;
14613;SDS011;7393;51.446;6.800;2023-05-29T09:18:28;8.73;;;2.67;;
14613;SDS011;7393;51.446;6.800;2023-05-29T09:20:55;7.53;;;2.50;;
14613;SDS011;7393;51.446;6.800;2023-05-29T09:23:22;11.00;;;2.63;;
14613;SDS011;7393;51.446;6.800;2023-05-29T09:25:53;14.13;;;3.83;;
14613;SDS011;7393;51.446;6.800;2023-05-29T09:28:20;10.63;;;3.03;;
14613;SDS011;7393;51.446;6.800;2023-05-29T09:30:50;7.70;;;2.63;;
14613;SDS011;7393;51.446;6.800;2023-05-29T09:33:16;12.13;;;2.77;;
14613;SDS011;7393;51.446;6.800;2023-05-29T09:35:44;9.57;;;2.73;;
14613;SDS011;7393;51.446;6.800;2023-05-29T09:38:12;11.20;;;3.30;;
14613;SDS011;7393;51.446;6.800;2023-05-29T09:40:41;9.90;;;2.27;;
14613;SDS011;7393;51.446;6.800;2023-05-29T09:43:10;10.07;;;2.80;;
14613;SDS011;7393;51.446;6.800;2023-05-29T09:45:39;13.30;;;3.23;;
14613;SDS011;7393;51.446;6.800;2023-05-29T09:48:12;7.43;;;2.93;;
14613;SDS011;7393;51.446;6.800;2023-05-29T09:50:40;8.67;;;2.83;;
14613;SDS011;7393;51.446;6.800;2023-05-29T09:53:15;8.53;;;2.80;;
14613;SDS011;7393;51.446;6.800;2023-05-29T09:55:44;10.43;;;3.03;;
14613;SDS011;7393;51.446;6.800;2023-05-29T09:58:11;14.03;;;2.80;;
14613;SDS011;7393;51.446;6.800;2023-05-29T10:00:40;6.90;;;2.50;;
14613;SDS011;7393;51.446;6.800;2023-05-29T10:03:09;10.93;;;2.67;;
14613;SDS011;7393;51.446;6.800;2023-05-29T10:05:37;9.43;;;3.10;;
14613;SDS011;7393;51.446;6.800;2023-05-29T10:08:05;8.30;;;2.70;;
14613;SDS011;7393;51.446;6.800;2023-05-29T10:10:33;7.07;;;2.60;;
14613;SDS011;7393;51.446;6.800;2023-05-29T10:13:02;8.57;;;2.73;;
14613;SDS011;7393;51.446;6.800;2023-05-29T10:15:31;7.83;;;2.43;;
14613;SDS011;7393;51.446;6.800;2023-05-29T10:18:00;12.93;;;2.80;;
14613;SDS011;7393;51.446;6.800;2023-05-29T10:20:31;7.87;;;2.70;;
14613;SDS011;7393;51.446;6.800;2023-05-29T10:23:00;7.33;;;2.60;;
14613;SDS011;7393;51.446;6.800;2023-05-29T10:25:29;8.53;;;2.50;;
14613;SDS011;7393;51.446;6.800;2023-05-29T10:27:58;8.17;;;2.50;;
14613;SDS011;7393;51.446;6.800;2023-05-29T10:30:28;12.03;;;3.10;;
14613;SDS011;7393;51.446;6.800;2023-05-29T10:33:09;7.20;;;2.60;;
14613;SDS011;7393;51.446;6.800;2023-05-29T10:35:50;5.33;;;2.13;;
14613;SDS011;7393;51.446;6.800;2023-05-29T10:38:21;7.20;;;2.57;;
14613;SDS011;7393;51.446;6.800;2023-05-29T10:40:50;5.60;;;2.40;;
14613;SDS011;7393;51.446;6.800;2023-05-29T10:43:32;9.33;;;2.90;;
14613;SDS011;7393;51.446;6.800;2023-05-29T10:46:00;8.37;;;2.93;;
14613;SDS011;7393;51.446;6.800;2023-05-29T10:48:37;9.23;;;2.60;;
14613;SDS011;7393;51.446;6.800;2023-05-29T10:51:23;8.50;;;2.80;;
14613;SDS011;7393;51.446;6.800;2023-05-29T10:53:51;9.70;;;2.30;;
14613;SDS011;7393;51.446;6.800;2023-05-29T10:56:20;7.97;;;2.43;;
14613;SDS011;7393;51.446;6.800;2023-05-29T10:58:52;7.43;;;3.00;;
14613;SDS011;7393;51.446;6.800;2023-05-29T11:01:21;7.73;;;2.60;;
14613;SDS011;7393;51.446;6.800;2023-05-29T11:03:49;6.50;;;2.30;;
14613;SDS011;7393;51.446;6.800;2023-05-29T11:06:19;7.30;;;2.57;;
14613;SDS011;7393;51.446;6.800;2023-05-29T11:08:52;7.97;;;2.63;;
14613;SDS011;7393;51.446;6.800;2023-05-29T11:11:29;6.53;;;2.27;;
14613;SDS011;7393;51.446;6.800;2023-05-29T11:14:00;8.47;;;2.30;;
14613;SDS011;7393;51.446;6.800;2023-05-29T11:16:37;6.03;;;2.30;;
14613;SDS011;7393;51.446;6.800;2023-05-29T11:19:05;7.63;;;2.70;;
14613;SDS011;7393;51.446;6.800;2023-05-29T11:21:38;7.73;;;2.70;;
14613;SDS011;7393;51.446;6.800;2023-05-29T11:24:18;7.10;;;2.67;;
14613;SDS011;7393;51.446;6.800;2023-05-29T11:26:48;6.63;;;2.33;;
14613;SDS011;7393;51.446;6.800;2023-05-29T11:29:20;6.07;;;2.47;;
14613;SDS011;7393;51.446;6.800;2023-05-29T11:31:48;7.17;;;2.40;;
14613;SDS011;7393;51.446;6.800;2023-05-29T11:34:21;6.90;;;2.03;;
14613;SDS011;7393;51.446;6.800;2023-05-29T11:36:52;8.63;;;2.37;;
14613;SDS011;7393;51.446;6.800;2023-05-29T11:39:19;6.60;;;2.43;;
14613;SDS011;7393;51.446;6.800;2023-05-29T11:41:49;6.43;;;2.23;;
14613;SDS011;7393;51.446;6.800;2023-05-29T11:44:16;5.47;;;2.40;;
14613;SDS011;7393;51.446;6.800;2023-05-29T11:46:43;5.03;;;2.13;;
14613;SDS011;7393;51.446;6.800;2023-05-29T11:49:10;8.23;;;2.77;;
14613;SDS011;7393;51.446;6.800;2023-05-29T11:51:37;7.10;;;2.60;;
14613;SDS011;7393;51.446;6.800;2023-05-29T11:54:05;6.93;;;2.63;;
14613;SDS011;7393;51.446;6.800;2023-05-29T11:56:32;6.80;;;2.30;;
14613;SDS011;7393;51.446;6.800;2023-05-29T11:58:59;6.40;;;2.20;;
14613;SDS011;7393;51.446;6.800;2023-05-29T12:01:31;8.00;;;2.17;;
14613;SDS011;7393;51.446;6.800;2023-05-29T12:04:01;9.20;;;2.60;;
14613;SDS011;7393;51.446;6.800;2023-05-29T12:06:40;5.73;;;2.47;;
14613;SDS011;7393;51.446;6.800;2023-05-29T12:09:08;9.67;;;2.53;;
14613;SDS011;7393;51.446;6.800;2023-05-29T12:11:35;9.60;;;2.37;;
14613;SDS011;7393;51.446;6.800;2023-05-29T12:14:02;5.13;;;2.50;;
14613;SDS011;7393;51.446;6.800;2023-05-29T12:16:29;4.67;;;1.93;;
14613;SDS011;7393;51.446;6.800;2023-05-29T12:18:59;9.90;;;2.23;;
14613;SDS011;7393;51.446;6.800;2023-05-29T12:21:26;4.93;;;1.87;;
14613;SDS011;7393;51.446;6.800;2023-05-29T12:23:53;7.70;;;2.30;;
14613;SDS011;7393;51.446;6.800;2023-05-29T12:26:23;5.57;;;2.13;;
14613;SDS011;7393;51.446;6.800;2023-05-29T12:28:51;7.63;;;2.23;;
14613;SDS011;7393;51.446;6.800;2023-05-29T12:31:27;6.37;;;2.43;;
14613;SDS011;7393;51.446;6.800;2023-05-29T12:34:00;7.03;;;2.50;;
14613;SDS011;7393;51.446;6.800;2023-05-29T12:36:27;8.93;;;2.60;;
14613;SDS011;7393;51.446;6.800;2023-05-29T12:38:55;5.90;;;2.43;;
14613;SDS011;7393;51.446;6.800;2023-05-29T12:41:25;9.87;;;3.00;;
14613;SDS011;7393;51.446;6.800;2023-05-29T12:43:53;8.77;;;2.50;;
14613;SDS011;7393;51.446;6.800;2023-05-29T12:46:21;5.83;;;2.20;;
14613;SDS011;7393;51.446;6.800;2023-05-29T12:48:49;8.47;;;2.50;;
14613;SDS011;7393;51.446;6.800;2023-05-29T12:51:22;7.00;;;2.30;;
14613;SDS011;7393;51.446;6.800;2023-05-29T12:53:49;5.10;;;2.37;;
14613;SDS011;7393;51.446;6.800;2023-05-29T12:56:19;6.37;;;2.53;;
14613;SDS011;7393;51.446;6.800;2023-05-29T12:58:48;9.23;;;2.33;;
14613;SDS011;7393;51.446;6.800;2023-05-29T13:01:16;6.57;;;2.23;;
14613;SDS011;7393;51.446;6.800;2023-05-29T13:03:42;5.07;;;2.40;;
14613;SDS011;7393;51.446;6.800;2023-05-29T13:06:09;5.87;;;2.33;;
14613;SDS011;7393;51.446;6.800;2023-05-29T13:08:37;4.97;;;2.20;;
14613;SDS011;7393;51.446;6.800;2023-05-29T13:11:04;5.37;;;2.17;;
14613;SDS011;7393;51.446;6.800;2023-05-29T13:13:30;6.63;;;2.33;;
14613;SDS011;7393;51.446;6.800;2023-05-29T13:15:59;4.80;;;2.30;;
14613;SDS011;7393;51.446;6.800;2023-05-29T13:18:25;5.63;;;2.10;;
14613;SDS011;7393;51.446;6.800;2023-05-29T13:20:52;8.90;;;2.50;;
14613;SDS011;7393;51.446;6.800;2023-05-29T13:23:19;4.63;;;1.90;;
14613;SDS011;7393;51.446;6.800;2023-05-29T13:25:47;5.03;;;2.57;;
14613;SDS011;7393;51.446;6.800;2023-05-29T13:28:14;5.40;;;2.43;;
14613;SDS011;7393;51.446;6.800;2023-05-29T13:30:41;4.80;;;2.23;;
14613;SDS011;7393;51.446;6.800;2023-05-29T13:33:09;6.77;;;2.60;;
14613;SDS011;7393;51.446;6.800;2023-05-29T13:35:36;7.80;;;2.57;;
14613;SDS011;7393;51.446;6.800;2023-05-29T13:38:03;8.47;;;2.33;;
14613;SDS011;7393;51.446;6.800;2023-05-29T13:40:30;7.23;;;2.43;;
14613;SDS011;7393;51.446;6.800;2023-05-29T13:42:57;5.17;;;2.53;;
14613;SDS011;7393;51.446;6.800;2023-05-29T13:45:24;6.10;;;2.10;;
14613;SDS011;7393;51.446;6.800;2023-05-29T13:47:52;5.83;;;2.30;;
14613;SDS011;7393;51.446;6.800;2023-05-29T13:50:21;6.50;;;2.23;;
14613;SDS011;7393;51.446;6.800;2023-05-29T13:52:48;5.60;;;2.27;;
14613;SDS011;7393;51.446;6.800;2023-05-29T13:55:15;7.27;;;2.30;;
14613;SDS011;7393;51.446;6.800;2023-05-29T13:57:42;4.90;;;2.43;;
14613;SDS011;7393;51.446;6.800;2023-05-29T14:00:10;5.50;;;2.27;;
14613;SDS011;7393;51.446;6.800;2023-05-29T14:02:37;6.30;;;2.33;;
14613;SDS011;7393;51.446;6.800;2023-05-29T14:05:05;6.67;;;2.10;;
14613;SDS011;7393;51.446;6.800;2023-05-29T14:07:33;5.93;;;2.17;;
14613;SDS011;7393;51.446;6.800;2023-05-29T14:10:00;7.47;;;2.40;;
14613;SDS011;7393;51.446;6.800;2023-05-29T14:12:27;8.60;;;2.53;;
14613;SDS011;7393;51.446;6.800;2023-05-29T14:14:54;7.77;;;2.20;;
14613;SDS011;7393;51.446;6.800;2023-05-29T14:17:21;5.27;;;2.27;;
14613;SDS011;7393;51.446;6.800;2023-05-29T14:19:48;7.70;;;2.90;;
14613;SDS011;7393;51.446;6.800;2023-05-29T14:22:15;9.23;;;2.67;;
14613;SDS011;7393;51.446;6.800;2023-05-29T14:24:43;5.40;;;2.40;;
14613;SDS011;7393;51.446;6.800;2023-05-29T14:27:10;4.73;;;2.37;;
14613;SDS011;7393;51.446;6.800;2023-05-29T14:29:36;5.77;;;2.20;;
14613;SDS011;7393;51.446;6.800;2023-05-29T14:32:03;3.97;;;2.17;;
14613;SDS011;7393;51.446;6.800;2023-05-29T14:34:31;6.70;;;2.40;;
14613;SDS011;7393;51.446;6.800;2023-05-29T14:36:58;6.37;;;2.63;;
14613;SDS011;7393;51.446;6.800;2023-05-29T14:39:24;6.30;;;2.57;;
14613;SDS011;7393;51.446;6.800;2023-05-29T14:41:53;6.07;;;2.47;;
14613;SDS011;7393;51.446;6.800;2023-05-29T14:44:19;5.37;;;2.27;;
14613;SDS011;7393;51.446;6.800;2023-05-29T14:46:46;7.60;;;2.60;;
14613;SDS011;7393;51.446;6.800;2023-05-29T14:49:13;5.87;;;2.47;;
14613;SDS011;7393;51.446;6.800;2023-05-29T14:51:40;5.40;;;2.60;;
14613;SDS011;7393;51.446;6.800;2023-05-29T14:54:07;7.40;;;2.90;;
14613;SDS011;7393;51.446;6.800;2023-05-29T14:56:34;9.63;;;3.40;;
14613;SDS011;7393;51.446;6.800;2023-05-29T14:59:02;4.97;;;2.20;;
14613;SDS011;7393;51.446;6.800;2023-05-29T15:01:29;6.87;;;2.33;;
14613;SDS011;7393;51.446;6.800;2023-05-29T15:03:56;6.43;;;2.30;;